• Join FlightAware (Why Join?)
  • Login
  • US Flag 
03:51PM EDT


 

Airport Tracker/Info


-or-


 

Live Flight TrackerFlight Track Log ✈ HAL285 ✈ 24-Apr-2013 ✈ PHOG / OGG - PHNL

Flight Track Log - Related Links

Times and Time Zones

All times are in EDT time to prevent confusion due to time zone crossing. See the HAL285 flight status page for this flight to view local times or setup timezone preferences in your user account.

Time Position Orientation Groundspeed Altitude Reporting Facility
EDT Latitude Longitude Course Direction KTS MPH feet Rate Location/Type
01:17PM 20.9000 -156.4167 255° West 150 173 900  Level Honolulu Center
01:18PM 20.9500 -156.4167 360° North 190 219 2,300 1,500 Climbing Honolulu Center
01:19PM 20.8371 -156.6553 250° West  Level FlightAware Approximate
01:19PM 21.0000 -156.4667 317° Northwest 230 265 4,000  Level Honolulu Center
01:20PM 20.8142 -156.7409 250° West  Level FlightAware Approximate
01:20PM 21.0500 -156.5167 317° Northwest 250 288 6,300  Level Honolulu Center
01:21PM 20.7859 -156.8255 250° West  Level FlightAware Approximate
01:21PM 21.0500 -156.6000 270° West 260 299 8,800  Level Honolulu Center
01:22PM 20.7637 -156.9121 255° West  Level FlightAware Approximate
01:22PM 21.0333 -156.6667 255° West 270 311 10,500  Level Honolulu Center
01:23PM 21.0167 -156.7667 260° West 310 357 12,000 1,560 Climbing Honolulu Center
01:24PM 21.0167 -156.8500 270° West 340 391 13,700 960 Climbing Honolulu Center
01:25PM 21.0000 -156.9667 261° West 350 403 14,000 60 Climbing Honolulu Center
01:26PM 20.9833 -157.0667 260° West 360 414 13,900 -60 Descending Honolulu Center
01:27PM 20.9667 -157.1667 260° West 340 391 13,900  Level Honolulu Center
01:28PM 20.9500 -157.2667 260° West 350 403 14,000 -180 Climbing Honolulu Center
01:29PM 20.9333 -157.3667 260° West 340 391 13,600 -720 Descending Honolulu Center
01:30PM 20.9333 -157.4500 270° West 280 322 12,600 -1,440 Descending Honolulu Center
01:31PM 20.9333 -157.5333 270° West 270 311 10,800 -1,920 Descending Honolulu Center
01:32PM 20.9667 -157.6167 293° West 270 311 8,800 -2,040 Descending Honolulu Center
01:33PM 20.9833 -157.6833 285° West 280 322 6,800 -1,860 Descending Honolulu Center
01:34PM 21.0167 -157.7667 293° West 280 322 5,100 -1,440 Descending Honolulu Center
01:35PM 21.0500 -157.8333 298° West 250 288 3,900 -1,200 Descending Honolulu Center
01:36PM 21.1000 -157.8833 317° Northwest 250 288 2,800 -1,140 Descending Honolulu Center